Burlington, VT (05401)

7:36 PM EDT on June 27, 2017 (GMT -0400)
Old North End | | Change Station

Elev 226 ft 44.49 °N, 73.22 °W | Updated 8 seconds ago

Rain
Rain
58.3 °F
Feels Like 58.3 °F
N
0.9
Wind Variable Wind from NE
Gusts 2.5 mph

Today
High -- | Low -- °F
--% Chance of Precip.
Yesterday
High -- | Low -- °F
Precip. -- in
Pressure 29.90 in
Visibility 6.0 miles
Clouds Scattered Clouds 4000 ft
Mostly Cloudy 7000 ft
Dew Point 57 °F
Humidity 95%
Rainfall 0.43 in
Snow Depth Not available.
5:10 AM 8:41 PM
Waxing Crescent, 20% visible
METAR KBTV 272254Z 00000KT 6SM -TSRA BR SCT040CB BKN070 15/13 A2990 RMK AO2 LTG DSNT E-S RAB07 TSB13 SLP125 ONCL LTGIC S TS S MOV NE P0008 T01500133
Pressure 29.90 in
Visibility 6.0 miles
Clouds Scattered Clouds 4000 ft
Mostly Cloudy 7000 ft
Dew Point 57 °F
Humidity 95%
Rainfall 0.43 in
Snow Depth Not available.
5:10 AM 8:41 PM
Waxing Crescent, 20% visible
METAR KBTV 272254Z 00000KT 6SM -TSRA BR SCT040CB BKN070 15/13 A2990 RMK AO2 LTG DSNT E-S RAB07 TSB13 SLP125 ONCL LTGIC S TS S MOV NE P0008 T01500133

Get Severe Weather Alerts

Thanks for signing up!

Be on the lookout for a verification email in your inbox.

You'll start receiving the daily forecast at 6 AM.

×

10-Day Weather Forecast

Almanac

Astronomy

Jun. 27, 2017 Rise Set
Actual Time
Civil Twilight
Nautical Twilight
Astronomical Twilight
Moon
Length of Visible Light
Length of Day
Tomorrow will be .
, % of the Moon is Illuminated

Today's Extremes

State Highs State Lows

Community

WunderPhotos

Category 6

Welcome to Category 6. This is the collective home for Weather Underground's featured writeups by Dr. Jeff Masters (right), Bob Henson (left), Chris Burt, and other regular contributors.

Nearby

Air Quality

  Air Quality AQ Index Pollutant
Not available.

Snow Depth

Station Depth Elevation

Earthquake Activity

City Distance Mag. Time & Date
Minimum magnitude displayed is 2.5.

Coastal Water Temperatures

Place Temperature

Stations

Nearby Weather Stations

Station Location Temp. Windchill Dew Point Humidity Wind Precip. Elev Updated Type
                   

Watches & Warnings

There are currently no watches in effect.